Time;durP1;ratioP1;P1;durP2;ratioP2;P2;SDS_P1;SDS_P2;PMS_P1;PMS_P2;Temp;Humidity;BMP_temperature;BMP_pressure;BME280_temperature;BME280_humidity;BME280_pressure;Samples;Min_cycle;Max_cycle;Signal;HPM_P1;HPM_P2
2023/02/20 00:00:39;;;;;;;0.20;0.20;;;;;;;20.46;36.25;102259.06;5019709;28;20148;-82
2023/02/20 00:03:06;;;;;;;0.30;0.30;;;;;;;20.48;36.21;102265.06;5017538;28;20049;-83
2023/02/20 00:05:31;;;;;;;0.30;0.30;;;;;;;20.52;36.17;102260.31;5019075;28;20909;-82
2023/02/20 00:07:57;;;;;;;0.50;0.50;;;;;;;20.51;36.22;102246.25;5014187;28;20045;-83
2023/02/20 00:10:23;;;;;;;0.40;0.40;;;;;;;20.42;36.17;102228.63;5018935;28;20042;-84
2023/02/20 00:12:50;;;;;;;0.17;0.17;;;;;;;20.50;36.19;102241.94;5015290;28;20100;-82
2023/02/20 00:15:18;;;;;;;0.98;0.45;;;;;;;20.52;36.04;102239.16;5019656;28;20041;-83
2023/02/20 00:17:46;;;;;;;0.40;0.38;;;;;;;20.45;36.30;102224.81;5015612;28;20081;-83
2023/02/20 00:20:24;;;;;;;0.45;0.40;;;;;;;20.43;36.33;102235.56;5021110;28;20060;-83
2023/02/20 00:22:50;;;;;;;1.25;0.40;;;;;;;20.45;36.34;102217.72;5027397;28;20040;-81
2023/02/20 00:25:17;;;;;;;0.30;0.30;;;;;;;20.51;36.24;102213.66;5019319;28;20487;-81
2023/02/20 00:27:44;;;;;;;0.63;0.63;;;;;;;20.48;36.32;102180.41;5021771;28;20041;-81
2023/02/20 00:30:16;;;;;;;0.50;0.50;;;;;;;20.43;36.31;102181.81;5020601;28;20474;-81
2023/02/20 00:32:41;;;;;;;0.63;0.50;;;;;;;20.41;36.35;102181.97;5022473;28;20045;-81
2023/02/20 00:35:10;;;;;;;0.40;0.40;;;;;;;20.41;36.28;102152.88;5023415;28;20058;-81
2023/02/20 00:37:37;;;;;;;0.77;0.40;;;;;;;20.42;36.43;102149.25;5020594;28;20049;-81
2023/02/20 00:40:03;;;;;;;0.35;0.30;;;;;;;20.60;36.03;102143.09;5020153;28;20037;-81
2023/02/20 00:42:28;;;;;;;0.40;0.40;;;;;;;20.46;36.35;102134.72;5024499;28;20160;-81
2023/02/20 00:44:53;;;;;;;0.73;0.52;;;;;;;20.44;36.06;102104.94;5026986;28;20182;-81
2023/02/20 00:47:19;;;;;;;0.55;0.30;;;;;;;20.46;36.35;102115.38;5023044;28;20499;-81
2023/02/20 00:49:45;;;;;;;0.22;0.22;;;;;;;20.39;36.45;102122.22;5021434;28;20044;-81
2023/02/20 00:52:13;;;;;;;0.28;0.28;;;;;;;20.48;36.27;102130.13;5019803;28;20065;-81
2023/02/20 00:54:38;;;;;;;0.10;0.10;;;;;;;20.43;36.15;102129.72;5019285;28;20046;-82
2023/02/20 00:57:04;;;;;;;0.20;0.20;;;;;;;20.46;36.32;102128.59;5004719;28;20091;-81
2023/02/20 00:59:29;;;;;;;0.50;0.30;;;;;;;20.50;36.33;102137.91;5018840;28;21777;-81
2023/02/20 01:01:55;;;;;;;0.15;0.15;;;;;;;20.37;36.59;102132.13;5018614;28;20045;-81
2023/02/20 01:04:20;;;;;;;0.30;0.30;;;;;;;20.40;36.50;102131.81;5017380;28;20041;-81
2023/02/20 01:06:46;;;;;;;0.77;0.77;;;;;;;20.38;36.56;102131.97;5017974;28;20135;-81
2023/02/20 01:09:12;;;;;;;0.20;0.20;;;;;;;20.45;36.51;102132.22;5016766;28;20472;-81
2023/02/20 01:11:37;;;;;;;0.25;0.25;;;;;;;20.45;36.47;102133.06;5020618;28;20042;-80
2023/02/20 01:14:03;;;;;;;0.57;0.57;;;;;;;20.44;36.41;102123.44;5023946;28;20119;-81
2023/02/20 01:16:29;;;;;;;0.28;0.28;;;;;;;20.43;36.33;102113.84;5024684;28;20143;-81
2023/02/20 01:18:54;;;;;;;0.43;0.40;;;;;;;20.50;36.22;102103.50;5021839;28;20041;-81
2023/02/20 01:21:20;;;;;;;0.30;0.30;;;;;;;20.41;36.37;102105.25;5026369;28;20040;-81
2023/02/20 01:23:47;;;;;;;0.30;0.30;;;;;;;20.46;36.29;102100.31;5014767;28;20043;-81
2023/02/20 01:26:13;;;;;;;0.32;0.32;;;;;;;20.44;36.49;102106.75;5023999;28;20868;-81
2023/02/20 01:28:38;;;;;;;0.20;0.20;;;;;;;20.39;36.37;102091.31;5023849;28;20376;-81
2023/02/20 01:31:04;;;;;;;0.55;0.40;;;;;;;20.56;36.27;102100.25;5022414;28;20383;-81
2023/02/20 01:33:32;;;;;;;0.30;0.30;;;;;;;20.44;36.28;102089.06;5020194;28;20061;-81
2023/02/20 01:35:58;;;;;;;0.40;0.20;;;;;;;20.43;36.46;102082.09;5021991;28;20041;-81
2023/02/20 01:38:23;;;;;;;0.30;0.30;;;;;;;20.38;36.53;102071.13;5023169;28;20048;-81
2023/02/20 01:40:49;;;;;;;0.30;0.30;;;;;;;20.45;36.51;102080.13;5026736;28;20092;-81
2023/02/20 01:43:15;;;;;;;0.30;0.30;;;;;;;20.43;36.44;102060.94;5021392;28;20180;-81
2023/02/20 01:45:41;;;;;;;0.43;0.38;;;;;;;20.35;36.34;102065.31;5004791;28;20567;-81
2023/02/20 01:48:21;;;;;;;0.95;0.30;;;;;;;20.40;36.55;102066.50;5025882;28;20073;-81
2023/02/20 01:50:52;;;;;;;0.50;0.45;;;;;;;20.53;36.28;102063.50;5021890;28;20496;-80
2023/02/20 01:53:22;;;;;;;0.50;0.47;;;;;;;20.36;36.60;102053.75;5020718;28;20203;-80
2023/02/20 01:56:01;;;;;;;0.17;0.17;;;;;;;20.44;36.56;102048.53;5017556;28;20094;-81
2023/02/20 01:58:35;;;;;;;0.43;0.40;;;;;;;20.40;36.58;102042.69;5020130;28;20361;-81
2023/02/20 02:01:03;;;;;;;0.13;0.13;;;;;;;20.40;36.83;102029.47;5015833;28;20045;-81
2023/02/20 02:03:34;;;;;;;0.40;0.40;;;;;;;20.42;36.36;102019.59;5018947;28;20548;-81
2023/02/20 02:06:03;;;;;;;0.30;0.30;;;;;;;20.50;36.40;102011.72;5019416;28;20050;-81
2023/02/20 02:08:29;;;;;;;0.30;0.30;;;;;;;20.48;36.32;101997.00;5020812;28;20041;-81
2023/02/20 02:11:01;;;;;;;0.68;0.40;;;;;;;20.42;36.34;101992.31;5018864;28;20387;-83
2023/02/20 02:13:27;;;;;;;0.20;0.20;;;;;;;20.32;36.56;101992.41;5017706;28;20049;-81
2023/02/20 02:16:05;;;;;;;0.45;0.30;;;;;;;20.44;36.39;101977.09;5021668;28;20040;-81
2023/02/20 02:18:55;;;;;;;0.20;0.20;;;;;;;20.37;36.70;101982.16;5039082;28;20036;-82
2023/02/20 02:21:39;;;;;;;0.40;0.40;;;;;;;20.41;36.22;101990.66;5014886;28;20038;-81
2023/02/20 02:24:21;;;;;;;0.35;0.35;;;;;;;20.24;36.74;102000.25;5025202;28;20041;-81
2023/02/20 02:27:02;;;;;;;0.30;0.30;;;;;;;20.40;36.44;101997.72;5024187;28;20034;-81
2023/02/20 02:29:42;;;;;;;0.40;0.40;;;;;;;20.43;36.37;102008.03;5019625;28;20044;-81
2023/02/20 02:32:45;;;;;;;0.40;0.40;;;;;;;20.34;36.64;101998.34;5020141;28;20052;-81
2023/02/20 02:35:33;;;;;;;0.30;0.30;;;;;;;20.38;36.46;102002.34;5021126;28;20176;-81
2023/02/20 02:38:16;;;;;;;0.20;0.20;;;;;;;20.40;36.58;101996.91;5038744;28;20103;-81
2023/02/20 02:40:42;;;;;;;0.30;0.30;;;;;;;20.42;36.38;101990.50;5020058;28;20034;-81
2023/02/20 02:43:26;;;;;;;0.50;0.50;;;;;;;20.31;36.72;101974.03;5018750;28;20117;-81
2023/02/20 02:45:56;;;;;;;0.55;0.50;;;;;;;20.33;36.59;101970.25;5032471;28;20049;-83
2023/02/20 02:48:24;;;;;;;0.30;0.30;;;;;;;20.38;36.52;101988.28;5019972;28;20091;-81
2023/02/20 02:50:56;;;;;;;0.25;0.25;;;;;;;20.38;36.41;101967.13;5020353;28;20076;-81
2023/02/20 02:53:21;;;;;;;0.30;0.30;;;;;;;20.30;36.57;101977.66;5016359;28;20040;-81
2023/02/20 02:55:48;;;;;;;0.32;0.30;;;;;;;20.18;36.49;101961.22;5011360;28;20065;-80
2023/02/20 02:58:15;;;;;;;1.17;0.63;;;;;;;20.31;36.56;101960.81;5009865;28;20125;-81
2023/02/20 03:00:47;;;;;;;0.40;0.40;;;;;;;20.37;36.50;101957.53;5015083;28;20168;-80
2023/02/20 03:03:45;;;;;;;0.57;0.57;;;;;;;20.23;36.69;101954.47;5021635;28;20491;-81
2023/02/20 03:06:24;;;;;;;0.40;0.40;;;;;;;20.26;36.67;101941.91;5013728;28;21760;-81
2023/02/20 03:08:58;;;;;;;0.60;0.60;;;;;;;20.32;36.48;101936.00;5016008;28;21908;-80
2023/02/20 03:11:29;;;;;;;0.20;0.20;;;;;;;20.33;36.54;101927.09;5016740;28;20333;-80
2023/02/20 03:17:30;;;;;;;0.32;0.32;;;;;;;20.28;36.66;101930.19;5018847;28;20030;-80
2023/02/20 03:20:04;;;;;;;0.30;0.30;;;;;;;20.24;36.62;101920.91;5021714;28;20594;-80
2023/02/20 03:22:37;;;;;;;0.30;0.30;;;;;;;20.21;36.77;101914.13;5017441;28;20717;-81
2023/02/20 03:25:12;;;;;;;0.57;0.57;;;;;;;20.24;36.63;101915.63;5006006;28;20794;-81
2023/02/20 03:28:02;;;;;;;0.50;0.50;;;;;;;20.36;36.47;101917.03;5019186;28;20033;-81
2023/02/20 03:30:39;;;;;;;0.40;0.40;;;;;;;20.20;36.67;101911.63;5021036;28;20030;-81
2023/02/20 03:44:41;;;;;;;0.50;0.50;;;;;;;20.21;36.49;101903.53;5017036;28;20042;-82
2023/02/20 03:47:09;;;;;;;0.50;0.50;;;;;;;20.26;36.50;101907.53;5023366;28;20029;-82
2023/02/20 03:49:39;;;;;;;0.60;0.60;;;;;;;20.21;36.68;101897.41;5009431;28;20057;-82
2023/02/20 03:52:05;;;;;;;0.63;0.63;;;;;;;20.28;36.64;101903.72;5021198;28;20052;-83
2023/02/20 03:54:35;;;;;;;0.60;0.60;;;;;;;20.28;36.56;101903.72;5015248;28;20065;-82
2023/02/20 03:57:17;;;;;;;0.82;0.57;;;;;;;20.19;36.91;101896.75;5015038;28;20034;-83
2023/02/20 03:59:56;;;;;;;0.52;0.47;;;;;;;20.30;36.63;101906.25;5018563;28;20033;-82
2023/02/20 04:02:28;;;;;;;0.90;0.60;;;;;;;20.21;36.49;101895.59;5032618;28;20423;-83
2023/02/20 04:04:59;;;;;;;0.30;0.30;;;;;;;20.20;36.64;101893.13;5012434;28;20033;-82
2023/02/20 04:07:29;;;;;;;0.40;0.40;;;;;;;20.20;36.71;101898.41;5016017;28;20194;-82
2023/02/20 04:10:00;;;;;;;0.65;0.50;;;;;;;20.26;36.56;101896.94;5016929;28;20037;-81
2023/02/20 04:12:33;;;;;;;0.30;0.30;;;;;;;20.31;36.59;101890.22;5013800;28;20037;-82
2023/02/20 04:15:00;;;;;;;0.30;0.30;;;;;;;20.18;36.73;101897.72;5020620;28;20515;-82
2023/02/20 04:17:39;;;;;;;0.50;0.50;;;;;;;20.23;36.59;101893.63;5021904;28;20037;-82
2023/02/20 04:20:05;;;;;;;0.43;0.30;;;;;;;20.16;36.71;101889.97;5019926;28;20033;-82
2023/02/20 04:22:39;;;;;;;0.65;0.47;;;;;;;20.08;36.88;101870.56;5014999;28;20033;-82
2023/02/20 04:25:34;;;;;;;0.80;0.77;;;;;;;20.05;36.94;101863.78;5020990;28;20424;-82
2023/02/20 04:28:03;;;;;;;0.30;0.30;;;;;;;20.20;36.78;101869.31;5017259;28;20056;-82
2023/02/20 04:30:32;;;;;;;0.70;0.47;;;;;;;20.06;36.82;101861.94;5024527;28;20033;-82
2023/02/20 04:32:57;;;;;;;0.47;0.47;;;;;;;20.17;36.86;101867.81;5023451;28;20419;-82
2023/02/20 04:35:24;;;;;;;0.43;0.43;;;;;;;20.21;36.69;101871.81;5024043;28;20056;-82
2023/02/20 04:37:49;;;;;;;0.82;0.70;;;;;;;20.15;36.83;101861.84;5016851;28;20039;-82
2023/02/20 04:40:18;;;;;;;0.52;0.43;;;;;;;20.16;36.76;101860.88;5020867;28;20034;-82
2023/02/20 04:42:44;;;;;;;0.50;0.50;;;;;;;20.12;36.81;101864.81;5022254;28;20037;-82
2023/02/20 04:45:10;;;;;;;0.90;0.75;;;;;;;20.16;36.80;101866.16;5008019;28;20639;-81
2023/02/20 04:47:35;;;;;;;0.93;0.65;;;;;;;20.12;36.44;101864.00;5023153;28;20037;-82
2023/02/20 04:50:01;;;;;;;0.63;0.63;;;;;;;20.22;36.67;101869.97;5022512;28;20041;-81
2023/02/20 04:52:28;;;;;;;0.47;0.47;;;;;;;20.11;36.85;101867.63;5021332;28;20140;-81
2023/02/20 04:54:54;;;;;;;0.52;0.52;;;;;;;20.07;36.87;101872.38;5022982;28;20041;-82
2023/02/20 04:57:21;;;;;;;0.40;0.32;;;;;;;20.06;36.73;101859.31;5022795;28;20839;-82
2023/02/20 04:59:47;;;;;;;0.32;0.32;;;;;;;20.11;36.85;101854.41;5023033;28;20040;-82
2023/02/20 05:02:13;;;;;;;1.10;0.70;;;;;;;20.06;36.88;101861.94;5020137;28;20049;-82
2023/02/20 05:04:39;;;;;;;0.85;0.60;;;;;;;20.08;36.76;101847.59;5019283;28;20944;-82
2023/02/20 05:07:05;;;;;;;1.08;0.75;;;;;;;20.10;36.85;101842.97;5024364;28;20380;-82
2023/02/20 05:09:31;;;;;;;0.65;0.65;;;;;;;20.06;36.87;101854.03;5023245;28;20041;-82
2023/02/20 05:11:56;;;;;;;0.68;0.68;;;;;;;20.03;36.89;101846.41;5022660;28;20041;-80
2023/02/20 05:14:22;;;;;;;0.93;0.73;;;;;;;20.03;36.89;101841.13;5024741;28;20167;-80
2023/02/20 05:16:50;;;;;;;1.08;0.80;;;;;;;20.03;36.91;101843.75;5024739;28;20087;-80
2023/02/20 05:19:16;;;;;;;0.73;0.63;;;;;;;19.88;37.22;101831.09;5018876;28;20065;-80
2023/02/20 05:24:31;;;;;;;1.67;0.80;;;;;;;19.94;37.02;101820.91;5021549;28;20052;-81
2023/02/20 05:26:57;;;;;;;1.17;1.00;;;;;;;20.04;36.89;101838.31;5025740;28;20049;-81
2023/02/20 05:29:22;;;;;;;0.88;0.60;;;;;;;19.93;37.03;101820.09;5025863;28;20065;-81
2023/02/20 05:31:49;;;;;;;0.95;0.90;;;;;;;19.99;36.98;101827.38;5025282;28;20476;-80
2023/02/20 05:34:14;;;;;;;0.68;0.68;;;;;;;19.92;37.10;101824.53;5020301;28;20057;-80
2023/02/20 05:36:40;;;;;;;1.20;1.10;;;;;;;19.92;37.09;101827.16;5025006;28;20517;-80
2023/02/20 05:39:05;;;;;;;1.30;0.90;;;;;;;19.98;36.97;101816.97;5022209;28;20061;-81
2023/02/20 05:41:31;;;;;;;0.50;0.50;;;;;;;19.84;37.15;101824.47;5018869;28;20041;-82
2023/02/20 05:43:57;;;;;;;0.93;0.77;;;;;;;19.98;37.15;101816.97;5023387;28;20041;-82
2023/02/20 05:46:24;;;;;;;1.05;1.02;;;;;;;19.94;36.99;101813.81;5021267;28;20492;-82
2023/02/20 05:48:50;;;;;;;0.60;0.57;;;;;;;19.95;37.00;101807.53;5025021;28;20585;-82
2023/02/20 05:51:22;;;;;;;0.40;0.40;;;;;;;19.90;37.16;101801.88;5025660;28;20510;-82
2023/02/20 05:53:47;;;;;;;0.88;0.70;;;;;;;19.91;37.16;101800.88;5023985;28;20041;-82
2023/02/20 05:56:13;;;;;;;1.25;0.90;;;;;;;19.83;37.16;101793.75;5016718;28;20100;-82
2023/02/20 05:58:42;;;;;;;0.88;0.82;;;;;;;19.91;37.15;101801.72;5024628;28;20091;-82
2023/02/20 06:01:08;;;;;;;1.27;0.90;;;;;;;19.95;36.99;101812.00;5022946;28;20131;-82
2023/02/20 06:03:34;;;;;;;1.08;0.77;;;;;;;19.94;37.14;101820.91;5021191;28;20049;-82
2023/02/20 06:05:59;;;;;;;0.80;0.80;;;;;;;19.88;37.16;101817.91;5023216;28;20060;-82
2023/02/20 06:08:25;;;;;;;0.80;0.55;;;;;;;19.92;37.07;101811.31;5015801;28;20423;-81
2023/02/20 06:10:50;;;;;;;1.23;0.90;;;;;;;20.01;36.96;101817.47;5020879;28;20053;-81
2023/02/20 06:13:16;;;;;;;1.08;0.88;;;;;;;20.00;36.66;101823.75;5018692;28;20055;-81
2023/02/20 06:15:41;;;;;;;0.70;0.60;;;;;;;20.09;36.78;101829.91;5022424;28;20112;-82
2023/02/20 06:18:07;;;;;;;0.50;0.50;;;;;;;20.00;36.94;101823.75;5020778;28;20034;-81
2023/02/20 06:20:32;;;;;;;0.70;0.70;;;;;;;19.96;37.01;101826.88;5019299;28;20048;-81
2023/02/20 06:22:57;;;;;;;0.68;0.68;;;;;;;19.88;37.12;101831.09;5021197;28;20052;-81
2023/02/20 06:25:23;;;;;;;1.23;1.00;;;;;;;19.99;37.15;101829.19;5017251;28;20041;-81
2023/02/20 06:27:49;;;;;;;0.43;0.43;;;;;;;19.99;37.05;101839.78;5019045;28;20045;-81
2023/02/20 06:30:14;;;;;;;1.15;0.95;;;;;;;19.98;37.06;101836.31;5016407;28;20041;-82
2023/02/20 06:32:40;;;;;;;0.82;0.82;;;;;;;19.89;37.04;101835.41;5020507;28;21156;-82
2023/02/20 06:35:06;;;;;;;0.93;0.93;;;;;;;19.94;37.12;101837.63;5019734;28;20045;-81
2023/02/20 06:37:31;;;;;;;1.23;1.00;;;;;;;19.97;37.03;101839.94;5017633;28;20494;-81
2023/02/20 06:39:57;;;;;;;0.70;0.63;;;;;;;19.99;37.07;101845.06;5018240;28;20124;-81
2023/02/20 06:42:22;;;;;;;0.85;0.70;;;;;;;20.03;36.93;101841.94;5020523;28;20045;-81
2023/02/20 06:44:48;;;;;;;0.80;0.80;;;;;;;19.98;36.96;101832.84;5015211;28;20044;-81
2023/02/20 06:47:14;;;;;;;0.70;0.70;;;;;;;19.99;36.99;101837.13;5014734;28;20049;-81
2023/02/20 06:49:40;;;;;;;0.70;0.70;;;;;;;19.94;37.13;101842.06;5015079;28;20045;-81
2023/02/20 06:52:07;;;;;;;1.48;1.00;;;;;;;20.01;36.92;101837.81;5018949;28;20057;-81
2023/02/20 06:54:33;;;;;;;0.60;0.60;;;;;;;19.99;36.90;101834.50;5014610;28;20071;-81
2023/02/20 06:56:59;;;;;;;1.35;0.70;;;;;;;19.99;37.04;101834.50;5022017;28;20565;-81
2023/02/20 06:59:25;;;;;;;0.68;0.68;;;;;;;19.91;36.96;101837.91;5018028;28;20082;-81
2023/02/20 07:01:50;;;;;;;1.35;1.05;;;;;;;19.91;37.03;101838.72;5018563;28;20037;-81
2023/02/20 07:04:19;;;;;;;0.85;0.75;;;;;;;19.92;37.02;101840.38;5019186;28;20045;-80
2023/02/20 07:06:45;;;;;;;1.23;0.75;;;;;;;19.87;36.91;101840.03;5022797;28;20029;-81
2023/02/20 07:09:12;;;;;;;1.40;1.02;;;;;;;19.96;37.06;101848.84;5021849;28;20140;-81
2023/02/20 07:11:38;;;;;;;0.90;0.90;;;;;;;19.94;36.99;101850.81;5023678;28;20519;-81
2023/02/20 07:14:03;;;;;;;1.40;1.02;;;;;;;19.87;37.06;101844.47;5023071;28;20080;-81
2023/02/20 07:16:30;;;;;;;1.35;1.25;;;;;;;19.91;36.95;101853.75;5018102;28;20037;-81
2023/02/20 07:18:56;;;;;;;0.95;0.82;;;;;;;20.02;36.98;101865.91;5023043;28;20371;-81
2023/02/20 07:21:21;;;;;;;1.48;1.02;;;;;;;19.91;37.01;101856.41;5020232;28;20045;-81
2023/02/20 07:23:47;;;;;;;0.93;0.93;;;;;;;20.02;36.90;101847.41;5020223;28;20042;-82
2023/02/20 07:26:20;;;;;;;1.27;0.90;;;;;;;20.86;35.39;101842.16;5020048;28;20304;-81
2023/02/20 07:28:47;;;;;;;0.73;0.60;;;;;;;21.29;34.84;101840.25;5031228;28;20048;-81
2023/02/20 07:31:12;;;;;;;0.93;0.70;;;;;;;21.57;34.52;101848.72;5019968;28;20091;-82
2023/02/20 07:33:38;;;;;;;1.00;0.90;;;;;;;21.61;34.36;101856.16;5033592;28;20479;-81
2023/02/20 07:36:04;;;;;;;0.85;0.70;;;;;;;21.54;34.56;101849.03;5024393;28;20045;-81
2023/02/20 07:38:29;;;;;;;1.13;1.02;;;;;;;21.45;34.51;101847.38;5016519;28;20038;-81
2023/02/20 07:40:55;;;;;;;0.77;0.77;;;;;;;21.38;34.54;101858.66;5020632;28;20049;-81
2023/02/20 07:43:20;;;;;;;1.17;0.88;;;;;;;21.28;34.85;101855.34;5015916;28;20052;-82
2023/02/20 07:45:49;;;;;;;0.95;0.95;;;;;;;21.21;35.18;101864.06;5016239;28;20118;-81
2023/02/20 07:48:15;;;;;;;0.70;0.70;;;;;;;21.08;35.66;101859.25;5016112;28;20049;-81
2023/02/20 07:50:40;;;;;;;0.90;0.80;;;;;;;20.95;35.75;101861.53;5019481;28;20045;-81
2023/02/20 07:53:06;;;;;;;0.80;0.80;;;;;;;20.93;35.85;101852.94;5019476;28;20134;-80
2023/02/20 07:55:31;;;;;;;0.52;0.52;;;;;;;20.72;36.07;101848.06;5028596;28;20033;-81
2023/02/20 07:57:57;;;;;;;0.82;0.70;;;;;;;20.42;36.73;101846.78;5022404;28;20040;-81
2023/02/20 08:00:25;;;;;;;0.80;0.80;;;;;;;20.42;36.71;101858.22;5023724;28;20761;-81
2023/02/20 08:02:50;;;;;;;0.80;0.68;;;;;;;20.27;37.09;101840.41;5020846;28;20103;-81
2023/02/20 08:05:16;;;;;;;1.23;0.98;;;;;;;20.22;37.17;101843.53;5024434;28;20041;-81
2023/02/20 08:07:46;;;;;;;1.33;0.95;;;;;;;20.11;37.45;101854.41;5022700;28;20050;-80
2023/02/20 08:10:13;;;;;;;0.50;0.50;;;;;;;20.11;37.47;101847.28;5018885;28;20470;-81
2023/02/20 08:12:39;;;;;;;1.15;0.80;;;;;;;20.12;37.38;101850.78;5004037;28;20018;-81
2023/02/20 08:15:05;;;;;;;1.02;0.80;;;;;;;20.09;37.44;101837.84;5023996;28;20045;-81
2023/02/20 08:17:30;;;;;;;0.70;0.70;;;;;;;20.12;37.56;101848.94;5021140;28;20048;-80
2023/02/20 08:19:56;;;;;;;0.85;0.77;;;;;;;20.10;37.55;101850.06;5018735;28;20052;-80
2023/02/20 08:22:21;;;;;;;0.82;0.75;;;;;;;20.09;37.50;101848.41;5018166;28;20037;-80
2023/02/20 08:24:47;;;;;;;0.73;0.73;;;;;;;20.07;37.41;101845.94;5021794;28;20041;-82
2023/02/20 08:27:12;;;;;;;0.60;0.60;;;;;;;20.03;37.43;101854.34;5020838;28;20049;-80
2023/02/20 08:29:38;;;;;;;1.10;1.00;;;;;;;19.97;37.74;101847.03;5022078;28;20049;-80
2023/02/20 08:32:04;;;;;;;0.70;0.70;;;;;;;20.01;37.70;101849.22;5023220;28;21606;-81
2023/02/20 08:34:29;;;;;;;1.00;0.93;;;;;;;20.06;37.77;101852.19;5016333;28;20467;-81
2023/02/20 08:36:55;;;;;;;1.20;0.93;;;;;;;19.99;37.69;101851.19;5018762;28;20033;-81
2023/02/20 08:39:20;;;;;;;1.77;0.85;;;;;;;20.03;37.57;101826.09;5019157;28;20128;-81
2023/02/20 08:41:46;;;;;;;0.95;0.70;;;;;;;20.10;37.43;101835.03;5022572;28;20041;-81
2023/02/20 08:44:13;;;;;;;1.08;0.98;;;;;;;20.05;37.49;101820.63;5018963;28;21515;-82
2023/02/20 08:46:48;;;;;;;1.00;0.90;;;;;;;20.09;37.39;101816.69;5023045;28;20141;-81
2023/02/20 08:49:15;;;;;;;0.60;0.60;;;;;;;20.06;37.53;101811.72;5016972;28;20127;-81
2023/02/20 08:51:41;;;;;;;0.77;0.65;;;;;;;20.01;37.63;101821.94;5024301;28;20058;-81
2023/02/20 08:54:06;;;;;;;0.80;0.80;;;;;;;20.01;37.51;101821.94;5016349;28;20044;-81
2023/02/20 08:56:32;;;;;;;0.80;0.80;;;;;;;20.07;37.45;101821.31;5023785;28;20021;-81
2023/02/20 08:58:57;;;;;;;3.17;1.00;;;;;;;20.00;37.58;101833.50;5021657;28;20048;-82
2023/02/20 09:01:23;;;;;;;0.80;0.80;;;;;;;20.09;37.30;101832.53;5017759;28;20103;-81
2023/02/20 09:03:50;;;;;;;0.85;0.70;;;;;;;19.97;37.74;101829.38;5021652;28;20052;-81
2023/02/20 09:06:15;;;;;;;0.80;0.77;;;;;;;19.95;37.71;101826.06;5025857;28;20131;-81
2023/02/20 09:08:41;;;;;;;1.10;1.00;;;;;;;19.96;37.65;101821.59;5021151;28;20153;-81
2023/02/20 09:11:06;;;;;;;1.23;0.95;;;;;;;20.07;37.41;101831.88;5021442;28;20042;-82
2023/02/20 09:13:32;;;;;;;0.90;0.68;;;;;;;20.01;37.50;101827.22;5020727;28;20083;-81
2023/02/20 09:15:58;;;;;;;0.77;0.77;;;;;;;20.08;37.37;101820.31;5019790;28;20594;-82
2023/02/20 09:18:23;;;;;;;0.93;0.80;;;;;;;20.09;37.47;101829.91;5020371;28;20042;-81
2023/02/20 09:20:49;;;;;;;1.15;0.90;;;;;;;20.87;36.15;101849.13;5017476;28;20045;-81
2023/02/20 09:23:15;;;;;;;0.85;0.85;;;;;;;21.37;34.91;101835.81;5021763;28;20064;-81
2023/02/20 09:25:41;;;;;;;1.42;0.90;;;;;;;21.66;34.80;101840.56;5019947;28;20041;-81
2023/02/20 09:28:07;;;;;;;1.63;1.13;;;;;;;21.68;34.40;101835.09;5020214;28;20037;-81
2023/02/20 09:30:33;;;;;;;1.42;0.77;;;;;;;21.56;34.96;101833.81;5024505;28;20033;-81
2023/02/20 09:32:58;;;;;;;0.80;0.80;;;;;;;21.50;35.03;101853.00;5015395;28;20030;-81
2023/02/20 09:35:27;;;;;;;0.55;0.55;;;;;;;21.44;34.92;101843.91;5019290;28;20037;-82
2023/02/20 09:37:52;;;;;;;1.20;0.70;;;;;;;21.28;35.18;101830.66;5023939;28;20043;-82
2023/02/20 09:40:21;;;;;;;0.68;0.68;;;;;;;21.28;35.30;101830.66;5021271;28;20038;-81
2023/02/20 09:43:18;;;;;;;1.25;0.70;;;;;;;21.24;35.31;101839.91;5021848;28;20044;-82
2023/02/20 09:45:51;;;;;;;1.10;0.65;;;;;;;21.01;35.96;101850.31;5021020;28;20041;-81
2023/02/20 09:48:53;;;;;;;0.80;0.80;;;;;;;20.68;36.40;101846.75;5016109;28;20042;-82
2023/02/20 09:51:21;;;;;;;1.45;1.10;;;;;;;20.51;36.80;101822.03;5019454;28;20062;-81
2023/02/20 09:53:55;;;;;;;0.50;0.50;;;;;;;20.58;36.79;101825.69;5019894;28;20037;-82
2023/02/20 09:56:26;;;;;;;1.38;0.90;;;;;;;20.40;37.45;101835.50;5022996;28;20815;-83
2023/02/20 09:58:56;;;;;;;1.00;0.75;;;;;;;20.32;37.35;101831.03;5020073;28;20032;-84
2023/02/20 10:01:23;;;;;;;1.00;0.77;;;;;;;20.31;37.46;101821.44;5018952;28;20061;-84
2023/02/20 10:03:57;;;;;;;1.27;1.13;;;;;;;20.28;37.60;101820.91;5021170;28;20041;-84
2023/02/20 10:06:29;;;;;;;1.50;1.05;;;;;;;20.29;37.52;101827.84;5021162;28;20034;-84
2023/02/20 10:08:55;;;;;;;1.00;0.90;;;;;;;20.32;37.46;101825.75;5020129;28;20049;-84
2023/02/20 10:11:39;;;;;;;0.65;0.65;;;;;;;20.20;37.64;101832.28;5027782;28;20148;-83
2023/02/20 10:14:33;;;;;;;1.15;0.90;;;;;;;20.20;37.64;101837.56;5024728;28;20044;-84
2023/02/20 10:17:25;;;;;;;1.08;0.70;;;;;;;20.18;37.64;101832.44;5024407;28;20037;-83
2023/02/20 10:20:10;;;;;;;0.50;0.50;;;;;;;20.25;37.39;101845.03;5026127;28;20062;-83
2023/02/20 10:22:57;;;;;;;1.08;0.90;;;;;;;20.27;37.33;101832.47;5039633;28;20078;-82
2023/02/20 10:25:29;;;;;;;1.55;1.00;;;;;;;21.17;35.85;101852.13;4969532;28;20514;-77
2023/02/20 10:28:15;;;;;;;1.30;0.73;;;;;;;21.44;35.46;101849.22;5015792;28;20171;-79
2023/02/20 10:30:49;;;;;;;0.90;0.90;;;;;;;21.67;35.25;101838.75;5016118;28;20045;-80
2023/02/20 10:33:23;;;;;;;1.52;1.10;;;;;;;22.03;35.03;101840.00;5017400;28;20069;-80
2023/02/20 10:35:54;;;;;;;1.15;0.70;;;;;;;22.42;33.99;101823.31;5020128;28;20041;-81
2023/02/20 10:38:24;;;;;;;1.42;0.95;;;;;;;22.78;33.71;101806.88;5019323;28;20041;-82
2023/02/20 10:41:04;;;;;;;1.30;0.73;;;;;;;22.85;33.39;101821.97;5020852;28;20046;-82
2023/02/20 10:44:05;;;;;;;;;;;;;;;22.79;33.82;101843.88;5026251;28;20037;-81
2023/02/20 10:46:33;;;;;;;1.13;0.82;;;;;;;22.86;33.54;101849.34;4949767;28;20288;-81
2023/02/20 10:49:05;;;;;;;1.00;0.90;;;;;;;22.79;33.97;101858.97;5007947;28;20861;-81
2023/02/20 10:51:41;;;;;;;1.17;0.80;;;;;;;22.71;33.96;101833.31;5021249;28;20488;-85
2023/02/20 10:54:11;;;;;;;1.17;0.70;;;;;;;22.66;34.28;101824.22;5021409;28;20127;-85
2023/02/20 10:56:44;;;;;;;0.77;0.60;;;;;;;22.69;33.82;101818.56;5028108;28;20368;-83
2023/02/20 10:59:17;;;;;;;1.38;0.85;;;;;;;22.68;34.06;101835.50;5021305;28;20089;-81
2023/02/20 11:01:47;;;;;;;1.83;0.70;;;;;;;22.68;34.04;101824.88;4999810;28;20041;-84
2023/02/20 11:04:16;;;;;;;;;;;;;;;22.65;33.97;101852.59;5018593;28;20041;-81
2023/02/20 11:06:45;;;;;;;1.60;1.17;;;;;;;22.68;34.13;101854.91;5023141;28;19917;-82
2023/02/20 11:09:11;;;;;;;1.70;1.10;;;;;;;22.69;34.46;101845.94;5025399;28;20124;-83
2023/02/20 11:11:46;;;;;;;0.57;0.57;;;;;;;22.67;34.46;101825.88;5018385;28;20073;-84
2023/02/20 11:14:17;;;;;;;1.20;0.75;;;;;;;22.68;34.09;101831.00;5021519;28;20049;-82
2023/02/20 11:16:57;;;;;;;0.80;0.75;;;;;;;22.67;34.47;101834.66;5018303;28;20469;-81
2023/02/20 11:19:52;;;;;;;1.65;0.88;;;;;;;22.67;34.33;101844.47;5004359;28;20426;-82
2023/02/20 11:22:48;;;;;;;1.35;0.70;;;;;;;22.68;34.05;101860.22;5022370;28;20506;-81
2023/02/20 11:25:33;;;;;;;1.27;0.80;;;;;;;22.67;34.22;101857.72;5021204;28;20041;-80
2023/02/20 11:28:23;;;;;;;1.75;1.15;;;;;;;22.70;34.08;101836.13;5015067;28;20038;-82
2023/02/20 11:31:04;;;;;;;0.80;0.75;;;;;;;22.68;33.96;101831.00;5021485;28;20041;-82
2023/02/20 11:33:33;;;;;;;0.98;0.45;;;;;;;22.67;34.47;101828.53;4992953;28;20045;-82
2023/02/20 11:36:10;;;;;;;1.08;0.98;;;;;;;22.60;34.58;101831.84;5019048;28;20048;-81
2023/02/20 11:38:37;;;;;;;1.58;1.05;;;;;;;22.60;34.52;101828.38;5019206;28;20091;-82
2023/02/20 11:41:06;;;;;;;1.38;0.90;;;;;;;22.69;34.35;101829.19;5019661;28;20048;-81
2023/02/20 11:43:35;;;;;;;0.70;0.70;;;;;;;22.64;34.19;101819.09;5026826;28;20095;-82
2023/02/20 11:46:22;;;;;;;1.02;0.80;;;;;;;22.67;34.22;101836.50;5016501;28;21156;-82
2023/02/20 11:49:00;;;;;;;0.77;0.68;;;;;;;22.65;34.22;101836.66;5021725;28;20333;-83
2023/02/20 11:51:37;;;;;;;0.68;0.55;;;;;;;22.60;34.43;101829.22;5000314;28;20049;-84
2023/02/20 11:54:32;;;;;;;1.05;0.93;;;;;;;22.66;34.53;101832.19;5023370;28;20095;-83
2023/02/20 11:57:27;;;;;;;1.45;0.68;;;;;;;22.38;35.19;101840.59;5010743;28;20049;-84